Time;durP1;ratioP1;P1;durP2;ratioP2;P2;SDS_P1;SDS_P2;PMS_P1;PMS_P2;Temp;Humidity;BMP_temperature;BMP_pressure;BME280_temperature;BME280_humidity;BME280_pressure;Samples;Min_cycle;Max_cycle;Signal;HPM_P1;HPM_P2
2021/08/04 00:00:04;;;;;;;10.23;7.57;;;20.80;93.70;;;;;;5096699;28;20032;-82
2021/08/04 00:02:29;;;;;;;8.70;7.80;;;20.80;94.10;;;;;;5095365;28;20035;-82
2021/08/04 00:04:55;;;;;;;10.30;8.32;;;20.70;93.90;;;;;;5097138;28;20032;-82
2021/08/04 00:07:21;;;;;;;8.70;7.35;;;20.70;94.00;;;;;;5095235;28;20024;-82
2021/08/04 00:09:46;;;;;;;11.45;7.40;;;20.60;94.10;;;;;;5095224;28;20519;-82
2021/08/04 00:12:12;;;;;;;10.93;8.07;;;20.60;94.00;;;;;;5095191;28;20031;-82
2021/08/04 00:14:38;;;;;;;8.77;7.40;;;20.60;94.00;;;;;;5095131;28;20028;-82
2021/08/04 00:17:04;;;;;;;9.43;8.05;;;20.60;94.00;;;;;;5095127;28;20059;-82
2021/08/04 00:19:30;;;;;;;12.45;7.68;;;20.60;94.00;;;;;;5096266;28;20024;-82
2021/08/04 00:21:56;;;;;;;11.25;8.00;;;20.60;94.00;;;;;;5096568;28;20024;-82
2021/08/04 00:24:22;;;;;;;9.77;8.05;;;20.60;94.00;;;;;;5094941;28;20114;-82
2021/08/04 00:26:47;;;;;;;13.57;8.07;;;20.60;94.00;;;;;;5096095;28;20466;-82
2021/08/04 00:29:13;;;;;;;10.05;8.18;;;20.60;94.00;;;;;;5096440;28;20027;-82
2021/08/04 00:31:39;;;;;;;10.43;8.15;;;20.60;94.00;;;;;;5096385;28;20492;-82
2021/08/04 00:34:04;;;;;;;9.45;8.35;;;20.50;93.90;;;;;;5096642;28;20396;-83
2021/08/04 00:36:30;;;;;;;12.07;9.15;;;20.50;93.90;;;;;;5096022;28;20081;-83
2021/08/04 00:38:58;;;;;;;9.43;8.40;;;20.50;93.90;;;;;;5094733;28;20132;-83
2021/08/04 00:41:24;;;;;;;14.10;8.13;;;20.50;93.90;;;;;;5096257;28;20025;-83
2021/08/04 00:43:49;;;;;;;10.18;8.63;;;20.50;93.90;;;;;;5095612;28;20030;-83
2021/08/04 00:46:15;;;;;;;10.63;8.20;;;20.50;94.00;;;;;;5095735;28;20412;-83
2021/08/04 00:48:43;;;;;;;10.70;9.07;;;20.50;94.00;;;;;;5095506;28;20041;-83
2021/08/04 00:51:09;;;;;;;12.55;9.02;;;20.40;94.00;;;;;;5095709;28;20031;-83
2021/08/04 00:53:36;;;;;;;12.18;8.75;;;20.40;94.00;;;;;;5095669;28;20028;-83
2021/08/04 00:56:07;;;;;;;12.38;9.40;;;20.40;94.10;;;;;;5094407;28;20048;-82
2021/08/04 00:58:36;;;;;;;9.80;8.45;;;20.40;94.20;;;;;;5094107;28;20020;-82
2021/08/04 01:01:25;;;;;;;10.68;8.93;;;20.40;94.20;;;;;;5095542;28;20024;-82
2021/08/04 01:03:55;;;;;;;9.75;8.60;;;20.30;94.20;;;;;;5095507;28;20099;-82
2021/08/04 01:06:46;;;;;;;10.95;8.75;;;20.30;94.30;;;;;;5094184;28;20439;-83
2021/08/04 01:09:12;;;;;;;12.52;9.48;;;20.30;94.50;;;;;;5094053;28;20390;-83
2021/08/04 01:11:45;;;;;;;11.07;8.05;;;20.20;94.50;;;;;;5095550;28;20103;-83
2021/08/04 01:14:22;;;;;;;10.30;8.48;;;20.20;94.40;;;;;;5095288;28;20428;-83
2021/08/04 01:16:50;;;;;;;11.23;8.85;;;20.20;94.50;;;;;;5095239;28;20016;-83
2021/08/04 01:19:53;;;;;;;11.25;9.80;;;20.10;94.50;;;;;;5094901;28;20026;-82
2021/08/04 01:22:41;;;;;;;12.10;8.75;;;20.10;94.90;;;;;;5093831;28;20020;-82
2021/08/04 01:25:42;;;;;;;12.98;8.93;;;20.00;94.90;;;;;;5095054;28;20024;-82
2021/08/04 01:28:21;;;;;;;12.20;9.15;;;20.00;94.80;;;;;;5093527;28;20385;-82
2021/08/04 01:30:50;;;;;;;12.60;8.70;;;20.00;94.90;;;;;;5095248;28;20026;-82
2021/08/04 01:33:17;;;;;;;13.32;8.20;;;20.00;95.00;;;;;;5094688;28;20020;-82
2021/08/04 01:35:44;;;;;;;11.98;8.55;;;20.00;94.90;;;;;;5093553;28;20020;-82
2021/08/04 01:38:14;;;;;;;11.98;8.65;;;19.90;94.90;;;;;;5094851;28;20051;-82
2021/08/04 01:40:43;;;;;;;11.13;8.20;;;19.90;95.00;;;;;;5095042;28;20111;-82
2021/08/04 01:43:11;;;;;;;9.90;8.30;;;19.90;95.00;;;;;;5094747;28;20382;-82
2021/08/04 01:45:38;;;;;;;16.27;8.93;;;19.90;95.00;;;;;;5094678;28;20020;-83
2021/08/04 01:48:05;;;;;;;13.32;9.20;;;19.90;95.00;;;;;;5094288;28;20086;-83
2021/08/04 01:50:31;;;;;;;10.40;7.95;;;19.90;95.10;;;;;;5094805;28;20044;-83
2021/08/04 01:52:58;;;;;;;13.52;8.68;;;19.80;95.20;;;;;;5094753;28;20731;-83
2021/08/04 01:55:24;;;;;;;12.55;8.85;;;19.80;95.20;;;;;;5093225;28;20024;-83
2021/08/04 01:57:50;;;;;;;9.85;8.20;;;19.80;95.30;;;;;;5094257;28;20023;-83
2021/08/04 02:00:15;;;;;;;11.45;8.52;;;19.80;95.30;;;;;;5094378;28;20489;-83
2021/08/04 02:02:41;;;;;;;13.57;8.55;;;19.70;95.20;;;;;;5093121;28;20034;-83
2021/08/04 02:05:07;;;;;;;10.55;9.00;;;19.80;95.20;;;;;;5094892;28;20098;-83
2021/08/04 02:08:05;;;;;;;11.63;8.10;;;19.80;95.20;;;;;;5094442;28;20027;-83
2021/08/04 02:10:57;;;;;;;10.60;8.30;;;19.80;95.10;;;;;;5094541;28;20020;-83
2021/08/04 02:13:46;;;;;;;10.23;8.05;;;19.80;95.20;;;;;;5094237;28;20031;-83
2021/08/04 02:16:30;;;;;;;10.00;8.27;;;19.80;95.10;;;;;;5094280;28;20031;-83
2021/08/04 02:19:31;;;;;;;12.40;8.65;;;19.80;95.10;;;;;;5093079;28;20466;-83
2021/08/04 02:22:07;;;;;;;11.15;8.90;;;19.70;95.10;;;;;;5094096;28;20068;-82
2021/08/04 02:24:40;;;;;;;12.05;8.68;;;19.70;95.30;;;;;;5092828;28;20024;-82
2021/08/04 02:27:07;;;;;;;12.52;8.82;;;19.70;95.30;;;;;;5092894;28;20374;-82
2021/08/04 02:29:36;;;;;;;12.20;8.70;;;19.70;95.20;;;;;;5093981;28;20023;-82
2021/08/04 02:32:03;;;;;;;10.70;8.53;;;19.70;95.20;;;;;;5093914;28;20074;-82
2021/08/04 02:34:29;;;;;;;11.27;9.05;;;19.70;95.20;;;;;;5093928;28;20103;-82
2021/08/04 02:36:57;;;;;;;10.82;8.85;;;19.70;95.40;;;;;;5093874;28;20070;-82
2021/08/04 02:39:24;;;;;;;10.80;8.43;;;19.70;95.40;;;;;;5093682;28;20489;-83
2021/08/04 02:41:50;;;;;;;13.07;9.15;;;19.60;95.50;;;;;;5094127;28;20031;-83
2021/08/04 02:44:16;;;;;;;11.40;8.13;;;19.60;95.50;;;;;;5093752;28;20028;-83
2021/08/04 02:46:46;;;;;;;10.57;8.07;;;19.60;95.50;;;;;;5093535;28;20024;-83
2021/08/04 02:49:15;;;;;;;9.30;7.97;;;19.60;95.50;;;;;;5093714;28;20461;-83
2021/08/04 02:51:42;;;;;;;13.02;8.55;;;19.70;95.50;;;;;;5092320;28;20493;-83
2021/08/04 02:54:12;;;;;;;13.23;8.70;;;19.70;95.50;;;;;;5093682;28;20024;-83
2021/08/04 02:56:38;;;;;;;10.45;8.27;;;19.70;95.50;;;;;;5092381;28;20047;-83
2021/08/04 02:59:03;;;;;;;11.32;8.52;;;19.70;95.50;;;;;;5093559;28;20474;-83
2021/08/04 03:01:29;;;;;;;13.38;8.82;;;19.70;95.50;;;;;;5092344;28;20024;-83
2021/08/04 03:03:55;;;;;;;13.05;9.30;;;19.70;95.50;;;;;;5093619;28;20035;-83
2021/08/04 03:06:20;;;;;;;10.63;8.15;;;19.70;95.70;;;;;;5093845;28;20103;-83
2021/08/04 03:08:46;;;;;;;9.32;7.90;;;19.70;95.90;;;;;;5092644;28;20024;-83
2021/08/04 03:11:12;;;;;;;13.20;8.93;;;19.70;95.70;;;;;;5097604;28;20103;-83
2021/08/04 03:13:37;;;;;;;11.18;8.77;;;19.70;95.70;;;;;;5097593;28;20020;-84
2021/08/04 03:16:04;;;;;;;15.20;9.10;;;19.70;95.80;;;;;;5096316;28;20020;-83
2021/08/04 03:18:29;;;;;;;13.70;9.00;;;19.70;96.00;;;;;;5095940;28;20047;-83
2021/08/04 03:20:55;;;;;;;12.35;8.38;;;19.70;96.10;;;;;;5097473;28;20070;-83
2021/08/04 18:01:48;;;;;;;7.30;5.25;;;24.50;82.20;;;;;;5111629;27;20365;-79
2021/08/04 18:04:13;;;;;;;8.63;5.40;;;24.30;82.40;;;;;;5112302;28;20028;-81
2021/08/04 18:06:39;;;;;;;10.77;5.20;;;24.30;82.40;;;;;;5112317;28;20020;-80
2021/08/04 18:09:06;;;;;;;7.30;5.13;;;24.30;82.30;;;;;;5111553;28;20038;-80
2021/08/04 18:11:32;;;;;;;8.95;4.88;;;24.30;82.50;;;;;;5111593;28;20473;-81
2021/08/04 18:13:58;;;;;;;17.98;6.70;;;24.40;82.20;;;;;;5111540;28;20110;-82
2021/08/04 18:16:24;;;;;;;13.93;5.80;;;24.40;82.50;;;;;;5111430;28;20359;-82
2021/08/04 18:18:50;;;;;;;6.32;5.50;;;24.40;81.80;;;;;;5108513;28;20030;-84
2021/08/04 18:21:16;;;;;;;9.70;6.63;;;24.40;81.50;;;;;;5111326;28;20034;-87
2021/08/04 18:23:42;;;;;;;13.68;7.13;;;24.40;81.00;;;;;;5111306;28;20016;-83
2021/08/04 18:26:07;;;;;;;7.15;5.50;;;24.40;80.90;;;;;;5111325;28;20024;-80
2021/08/04 18:28:33;;;;;;;30.02;24.50;;;24.40;80.70;;;;;;5111037;28;20102;-82
2021/08/04 18:30:59;;;;;;;11.77;10.52;;;24.40;80.40;;;;;;5111115;28;20035;-81
2021/08/04 18:33:25;;;;;;;9.85;6.72;;;24.40;80.30;;;;;;5110842;28;20020;-81
2021/08/04 18:35:51;;;;;;;12.07;10.00;;;24.40;80.20;;;;;;5110711;28;20093;-80
2021/08/04 18:38:17;;;;;;;17.80;15.75;;;24.40;80.00;;;;;;5111011;28;20463;-81
2021/08/04 18:40:43;;;;;;;14.05;8.43;;;24.40;79.80;;;;;;5110411;28;20103;-82
2021/08/04 18:43:08;;;;;;;9.35;7.70;;;24.40;79.80;;;;;;5110531;28;20538;-82
2021/08/04 18:45:35;;;;;;;10.45;6.70;;;24.40;79.60;;;;;;5110590;28;20531;-82
2021/08/04 18:48:00;;;;;;;8.43;6.28;;;24.40;79.30;;;;;;5110503;28;20090;-82
2021/08/04 18:50:27;;;;;;;8.32;6.47;;;24.40;79.30;;;;;;5110333;28;20047;-82
2021/08/04 18:52:54;;;;;;;8.70;6.68;;;24.40;79.30;;;;;;5110334;28;20028;-81
2021/08/04 18:55:20;;;;;;;10.05;6.50;;;24.40;80.00;;;;;;5110315;28;20028;-82
2021/08/04 18:57:46;;;;;;;11.82;6.93;;;24.40;79.30;;;;;;5110276;28;20478;-81
2021/08/04 19:00:12;;;;;;;12.57;6.85;;;24.40;79.40;;;;;;5110047;28;20131;-82
2021/08/04 19:02:55;;;;;;;10.32;7.13;;;24.30;79.50;;;;;;5109056;28;20027;-81
2021/08/04 19:05:23;;;;;;;15.70;7.75;;;24.30;79.80;;;;;;5109620;28;20024;-80
2021/08/04 19:07:50;;;;;;;10.85;7.93;;;24.30;79.80;;;;;;5110158;28;20530;-81
2021/08/04 19:10:16;;;;;;;10.88;7.18;;;24.30;79.90;;;;;;5110072;28;20381;-82
2021/08/04 19:12:46;;;;;;;10.05;6.88;;;24.30;80.20;;;;;;5099011;28;20477;-82
2021/08/04 19:15:13;;;;;;;9.73;6.55;;;24.20;80.10;;;;;;5096378;28;20107;-81
2021/08/04 19:17:39;;;;;;;13.32;7.43;;;24.20;80.20;;;;;;5096278;28;20024;-81
2021/08/04 19:20:05;;;;;;;10.70;7.10;;;24.20;80.80;;;;;;5096367;28;20484;-81
2021/08/04 19:22:31;;;;;;;10.48;6.95;;;24.20;81.10;;;;;;5096243;28;20478;-81
2021/08/04 19:24:58;;;;;;;10.27;7.43;;;24.10;80.80;;;;;;5076344;28;20032;-85
2021/08/04 19:27:24;;;;;;;11.02;7.35;;;24.10;80.70;;;;;;5076032;28;20013;-80
2021/08/04 19:29:50;;;;;;;23.67;15.68;;;24.10;81.00;;;;;;5076099;28;20024;-80
2021/08/04 19:32:15;;;;;;;21.55;13.98;;;24.10;81.10;;;;;;5075973;28;20475;-81
2021/08/04 19:34:41;;;;;;;14.48;10.75;;;24.10;81.00;;;;;;5075748;28;20466;-83
2021/08/04 19:37:06;;;;;;;29.65;22.17;;;24.00;81.00;;;;;;5075692;28;20526;-80
2021/08/04 19:39:32;;;;;;;18.90;14.65;;;24.00;81.20;;;;;;5075732;28;20052;-79
2021/08/04 19:41:58;;;;;;;14.65;9.07;;;24.00;81.40;;;;;;5075733;28;20359;-82
2021/08/04 19:44:23;;;;;;;10.20;7.47;;;24.00;81.20;;;;;;5075655;28;20020;-80
2021/08/04 19:46:49;;;;;;;15.57;12.35;;;24.00;81.40;;;;;;5075145;28;20021;-81
2021/08/04 19:49:15;;;;;;;13.52;8.48;;;24.00;81.40;;;;;;5075466;28;20074;-81
2021/08/04 19:51:40;;;;;;;10.38;7.68;;;24.00;81.30;;;;;;5075495;28;20418;-81
2021/08/04 19:54:06;;;;;;;9.35;6.78;;;24.00;81.20;;;;;;5075442;28;20020;-81
2021/08/04 19:56:32;;;;;;;11.88;8.00;;;24.00;82.00;;;;;;5075467;28;20025;-81
2021/08/04 19:58:57;;;;;;;9.80;7.00;;;23.90;81.50;;;;;;5083717;28;20028;-81
2021/08/04 20:01:23;;;;;;;10.70;7.57;;;23.90;81.60;;;;;;5095210;28;20444;-81
2021/08/04 20:03:49;;;;;;;11.73;8.13;;;24.00;81.90;;;;;;5095658;28;20048;-81
2021/08/04 20:06:15;;;;;;;10.55;7.38;;;23.90;81.70;;;;;;5095720;28;20074;-81
2021/08/04 20:08:40;;;;;;;10.45;6.78;;;23.90;81.80;;;;;;5096069;28;20098;-81
2021/08/04 20:11:06;;;;;;;13.65;8.02;;;23.90;82.10;;;;;;5095507;28;20024;-81
2021/08/04 20:13:32;;;;;;;15.68;8.63;;;23.90;82.20;;;;;;5095881;28;20081;-81
2021/08/04 20:15:58;;;;;;;12.68;8.40;;;23.90;82.60;;;;;;5096007;28;20129;-81
2021/08/04 20:18:28;;;;;;;12.55;8.98;;;23.90;82.60;;;;;;5096011;28;20475;-81
2021/08/04 20:20:54;;;;;;;;;;;23.90;82.70;;;;;;5095710;28;20028;-81
2021/08/04 20:23:19;;;;;;;15.05;8.85;;;23.80;82.70;;;;;;5094542;28;20339;-80
2021/08/04 20:25:45;;;;;;;13.90;8.00;;;23.80;82.80;;;;;;5096095;28;20126;-82
2021/08/04 20:28:11;;;;;;;15.75;8.35;;;23.90;82.50;;;;;;5095455;28;20103;-82
2021/08/04 20:30:36;;;;;;;16.27;8.27;;;23.90;82.40;;;;;;5095196;28;20032;-82
2021/08/04 20:33:02;;;;;;;13.35;8.32;;;23.80;82.60;;;;;;5095413;28;20382;-82
2021/08/04 20:35:28;;;;;;;13.40;9.65;;;23.80;82.90;;;;;;5095026;28;20024;-82
2021/08/04 20:37:53;;;;;;;14.00;8.68;;;23.80;82.40;;;;;;5094984;28;20024;-81
2021/08/04 20:40:19;;;;;;;17.80;8.85;;;23.80;82.40;;;;;;5094944;28;20024;-81
2021/08/04 20:42:45;;;;;;;12.13;7.80;;;23.80;82.50;;;;;;5094909;28;20016;-81
2021/08/04 20:45:12;;;;;;;12.02;8.05;;;23.80;82.60;;;;;;5094876;28;20088;-81
2021/08/04 20:47:38;;;;;;;12.02;7.93;;;23.80;82.40;;;;;;5095393;28;20019;-81
2021/08/04 20:50:04;;;;;;;11.90;8.52;;;23.80;82.70;;;;;;5095280;28;20467;-81
2021/08/04 20:52:30;;;;;;;10.98;8.25;;;23.80;83.10;;;;;;5094177;28;20419;-81
2021/08/04 20:54:55;;;;;;;11.82;7.93;;;23.80;82.60;;;;;;5094664;28;20058;-81
2021/08/04 20:57:23;;;;;;;12.20;8.75;;;23.80;82.60;;;;;;5094610;28;20077;-81
2021/08/04 20:59:52;;;;;;;14.82;8.32;;;23.70;83.20;;;;;;5094618;28;20051;-81
2021/08/04 21:02:20;;;;;;;;;;;23.70;83.00;;;;;;5095329;28;20020;-82
2021/08/04 21:04:46;;;;;;;11.35;7.93;;;23.60;82.80;;;;;;5094816;28;19911;-82
2021/08/04 21:07:11;;;;;;;12.25;8.52;;;23.60;83.00;;;;;;5094871;28;20020;-81
2021/08/04 21:09:37;;;;;;;11.70;7.28;;;23.60;83.60;;;;;;5095079;28;20351;-81
2021/08/04 21:12:04;;;;;;;9.35;6.57;;;23.60;83.20;;;;;;5094428;28;20017;-81
2021/08/04 21:14:30;;;;;;;9.75;6.75;;;23.70;83.10;;;;;;5094358;28;20024;-81
2021/08/04 21:16:56;;;;;;;9.13;7.07;;;23.70;83.50;;;;;;5094306;28;20028;-81
2021/08/04 21:19:21;;;;;;;11.18;7.07;;;23.70;83.10;;;;;;5094281;28;20069;-82
2021/08/04 21:21:47;;;;;;;7.65;6.50;;;23.70;82.70;;;;;;5094152;28;20386;-81
2021/08/04 21:24:13;;;;;;;9.70;6.82;;;23.70;82.70;;;;;;5094536;28;20497;-81
2021/08/04 21:26:39;;;;;;;9.52;6.10;;;23.70;82.70;;;;;;5094732;28;20489;-81
2021/08/04 21:29:04;;;;;;;8.25;6.55;;;23.80;83.20;;;;;;5094449;28;20024;-82
2021/08/04 21:31:30;;;;;;;9.75;6.38;;;23.80;82.90;;;;;;5094116;28;20462;-81
2021/08/04 21:33:56;;;;;;;7.00;5.90;;;23.70;82.90;;;;;;5094620;28;20514;-81
2021/08/04 21:36:21;;;;;;;6.72;5.75;;;23.80;83.00;;;;;;5093744;28;20024;-83
2021/08/04 21:38:47;;;;;;;8.63;6.43;;;23.80;82.70;;;;;;5094567;28;20055;-84
2021/08/04 21:41:12;;;;;;;8.98;6.70;;;23.80;83.00;;;;;;5093883;28;20063;-83
2021/08/04 21:43:38;;;;;;;7.22;5.88;;;23.80;83.50;;;;;;5094219;28;20089;-83
2021/08/04 21:46:04;;;;;;;8.00;5.82;;;23.80;83.20;;;;;;5094206;28;20400;-83
2021/08/04 21:48:29;;;;;;;8.13;5.22;;;23.80;83.10;;;;;;5093833;28;20100;-83
2021/08/04 21:50:55;;;;;;;6.13;5.57;;;23.80;83.30;;;;;;5094147;28;20024;-82
2021/08/04 21:53:21;;;;;;;9.35;6.30;;;23.80;83.30;;;;;;5093786;28;20081;-83
2021/08/04 21:55:46;;;;;;;6.13;5.47;;;23.70;83.60;;;;;;5093769;28;20099;-83
2021/08/04 21:58:12;;;;;;;7.15;5.20;;;23.80;83.70;;;;;;5093813;28;20105;-83
2021/08/04 22:00:38;;;;;;;5.97;5.38;;;23.80;83.60;;;;;;5093421;28;20044;-83
2021/08/04 22:03:04;;;;;;;6.07;5.57;;;23.80;83.90;;;;;;5094293;28;20016;-83
2021/08/04 22:05:31;;;;;;;6.43;5.75;;;23.80;84.10;;;;;;5093671;28;20053;-83
2021/08/04 22:08:11;;;;;;;6.60;5.35;;;23.80;84.30;;;;;;5093990;28;20023;-83
2021/08/04 22:10:36;;;;;;;;;;;23.80;84.20;;;;;;5094149;28;20055;-83
2021/08/04 22:13:02;;;;;;;7.47;5.47;;;23.70;84.70;;;;;;5094031;28;19934;-82
2021/08/04 22:15:28;;;;;;;9.27;6.18;;;23.80;85.20;;;;;;5093728;28;20459;-83
2021/08/04 22:17:53;;;;;;;6.80;5.60;;;23.80;85.10;;;;;;5093725;28;20397;-83
2021/08/04 22:20:19;;;;;;;7.50;6.32;;;23.70;85.00;;;;;;5093639;28;20028;-83
2021/08/04 22:22:45;;;;;;;6.43;5.53;;;23.80;84.90;;;;;;5093419;28;20028;-83
2021/08/04 22:25:11;;;;;;;8.00;5.80;;;23.80;84.80;;;;;;5093536;28;20435;-83
2021/08/04 22:27:37;;;;;;;12.13;6.22;;;23.80;84.80;;;;;;5093597;28;20036;-83
2021/08/04 22:30:03;;;;;;;7.03;5.97;;;23.90;85.20;;;;;;5093335;28;20028;-83
2021/08/04 22:32:29;;;;;;;6.88;6.00;;;23.80;85.30;;;;;;5093418;28;20028;-83
2021/08/04 22:34:54;;;;;;;8.52;5.82;;;23.90;85.30;;;;;;5093482;28;20024;-83
2021/08/04 22:37:20;;;;;;;8.13;6.20;;;23.90;85.20;;;;;;5093562;28;20032;-82
2021/08/04 22:39:45;;;;;;;8.98;6.15;;;23.90;84.60;;;;;;5093449;28;20099;-83
2021/08/04 22:42:11;;;;;;;7.72;6.07;;;23.90;85.00;;;;;;5093178;28;20024;-83
2021/08/04 22:44:37;;;;;;;8.65;5.80;;;23.80;84.60;;;;;;5093520;28;20020;-80
2021/08/04 22:47:02;;;;;;;9.23;6.10;;;23.80;84.60;;;;;;5094417;28;20020;-81
2021/08/04 22:49:28;;;;;;;10.10;6.22;;;23.80;85.60;;;;;;5097353;28;20140;-81
2021/08/04 22:51:54;;;;;;;6.82;5.82;;;23.80;85.80;;;;;;5092222;28;20382;-81
2021/08/04 22:54:19;;;;;;;8.57;5.63;;;23.70;86.10;;;;;;5076941;28;20096;-80
2021/08/04 22:56:45;;;;;;;6.60;5.50;;;23.70;85.60;;;;;;5076593;28;20059;-81
2021/08/04 22:59:11;;;;;;;8.65;5.95;;;23.70;85.60;;;;;;5076845;28;20028;-82
2021/08/04 23:01:36;;;;;;;7.22;5.97;;;23.70;85.80;;;;;;5076185;28;20052;-81
2021/08/04 23:04:02;;;;;;;8.25;5.43;;;23.70;85.60;;;;;;5076442;28;20055;-80
2021/08/04 23:06:28;;;;;;;6.93;5.50;;;23.70;85.70;;;;;;5076674;28;20016;-80
2021/08/04 23:08:53;;;;;;;6.25;5.63;;;23.60;86.00;;;;;;5076388;28;20016;-81
2021/08/04 23:11:19;;;;;;;9.68;6.10;;;23.60;85.80;;;;;;5076565;28;20158;-81
2021/08/04 23:13:45;;;;;;;7.72;5.68;;;23.60;85.20;;;;;;5076317;28;20025;-81
2021/08/04 23:16:10;;;;;;;8.13;4.68;;;23.60;84.70;;;;;;5085136;28;20119;-80
2021/08/04 23:18:36;;;;;;;6.43;5.10;;;23.70;84.50;;;;;;5096807;28;20051;-80
2021/08/04 23:21:02;;;;;;;7.45;5.43;;;23.70;84.40;;;;;;5096811;28;20027;-80
2021/08/04 23:23:27;;;;;;;6.00;5.40;;;23.70;85.20;;;;;;5096634;28;20031;-80
2021/08/04 23:25:53;;;;;;;9.27;5.30;;;23.70;85.50;;;;;;5096621;28;20024;-81
2021/08/04 23:28:19;;;;;;;10.77;6.28;;;23.80;85.90;;;;;;5096769;28;20485;-79
2021/08/04 23:30:44;;;;;;;10.65;6.60;;;23.80;88.40;;;;;;5096519;28;20439;-80
2021/08/04 23:33:10;;;;;;;7.05;5.97;;;23.60;90.70;;;;;;5096765;28;20374;-81
2021/08/04 23:35:36;;;;;;;5.90;5.30;;;23.60;91.00;;;;;;5096405;28;20516;-80
2021/08/04 23:38:01;;;;;;;6.40;5.32;;;23.60;90.80;;;;;;5096123;28;20413;-81
2021/08/04 23:40:27;;;;;;;8.88;6.20;;;23.50;91.20;;;;;;5096575;28;20035;-80
2021/08/04 23:42:53;;;;;;;8.15;6.15;;;23.50;91.70;;;;;;5095998;28;20028;-80
2021/08/04 23:45:18;;;;;;;6.72;5.68;;;23.40;92.00;;;;;;5096261;28;20103;-81
2021/08/04 23:47:44;;;;;;;8.85;6.13;;;23.40;91.90;;;;;;5096259;28;20020;-81
2021/08/04 23:50:10;;;;;;;6.00;5.40;;;23.40;92.20;;;;;;5096077;28;20020;-80
2021/08/04 23:52:36;;;;;;;8.20;6.38;;;23.40;92.20;;;;;;5096390;28;20039;-79
2021/08/04 23:55:02;;;;;;;7.95;6.18;;;23.40;92.30;;;;;;5095746;28;20024;-79
2021/08/04 23:57:27;;;;;;;6.10;5.50;;;23.30;92.30;;;;;;5095684;28;20364;-79
2021/08/04 23:59:53;;;;;;;7.32;5.22;;;23.30;92.20;;;;;;5095511;28;20052;-79
